createdAt,value
2017-01-13T00:08:36.864Z,1.8
2017-01-13T00:18:48.667Z,1.8
2017-01-13T00:29:00.463Z,1.9
2017-01-13T00:39:12.244Z,2
2017-01-13T00:49:24.026Z,2.4
2017-01-13T00:59:35.808Z,2.6
2017-01-13T01:09:47.513Z,2.7
2017-01-13T01:19:59.191Z,2.8
2017-01-13T01:30:10.840Z,3
2017-01-13T01:40:22.538Z,3.2
2017-01-13T01:50:34.182Z,3.3
2017-01-13T02:00:45.830Z,3.5
2017-01-13T02:10:57.489Z,3.6
2017-01-13T02:21:09.048Z,3.2
2017-01-13T02:31:20.655Z,3.1
2017-01-13T02:41:32.325Z,3
2017-01-13T02:51:43.927Z,2.4
2017-01-13T03:01:55.561Z,1.6
2017-01-13T03:12:07.249Z,1.2
2017-01-13T03:22:19.046Z,0.6
2017-01-13T03:32:30.957Z,0.6
2017-01-13T03:42:42.973Z,0.6
2017-01-13T03:52:54.997Z,0.6
2017-01-13T04:03:07.066Z,0.7
2017-01-13T04:13:19.105Z,0.8
2017-01-13T04:23:31.125Z,0.8
2017-01-13T04:33:43.156Z,0.6
2017-01-13T04:43:55.169Z,0.4
2017-01-13T04:54:07.073Z,0.5
2017-01-13T05:04:19.023Z,0.5
2017-01-13T05:14:30.944Z,0.5
2017-01-13T05:24:42.932Z,0.6
2017-01-13T05:34:54.952Z,0.7
2017-01-13T05:45:06.929Z,0.8
2017-01-13T05:55:18.934Z,0.8
2017-01-13T06:05:30.953Z,0.8
2017-01-13T06:15:42.946Z,0.8
2017-01-13T06:25:54.903Z,1.1
2017-01-13T06:36:06.877Z,1.1
2017-01-13T06:46:18.892Z,1.1
2017-01-13T06:56:30.925Z,1.3
2017-01-13T07:06:42.894Z,1.4
2017-01-13T07:16:54.877Z,1.5
2017-01-13T07:27:06.829Z,1.4
2017-01-13T07:37:18.772Z,1.5
2017-01-13T07:47:30.753Z,1.6
2017-01-13T07:57:42.712Z,1.6
2017-01-13T08:07:54.582Z,1.7
2017-01-13T08:18:06.436Z,1.8
2017-01-13T08:28:18.350Z,1.9
2017-01-13T08:38:30.129Z,1.9
2017-01-13T08:48:41.847Z,1.9
2017-01-13T08:58:53.484Z,2.1
2017-01-13T09:09:05.289Z,2.4
2017-01-13T09:19:16.290Z,2.5
2017-01-13T09:29:27.362Z,2.4
2017-01-13T09:39:38.546Z,2.5
2017-01-13T09:49:49.857Z,2.3
2017-01-13T10:00:01.251Z,2.3
2017-01-13T10:10:12.544Z,2.4
2017-01-13T10:20:23.852Z,2.4
2017-01-13T10:30:35.106Z,2.3
2017-01-13T10:40:46.452Z,2.1
2017-01-13T10:50:57.773Z,2.3
2017-01-13T11:01:09.207Z,2.4
2017-01-13T11:11:20.585Z,2.1
2017-01-13T11:21:31.959Z,2.2
2017-01-13T11:31:43.349Z,2.2
2017-01-13T11:41:54.704Z,2.3
2017-01-13T11:52:05.977Z,2.3
2017-01-13T12:02:17.291Z,2.2
2017-01-13T12:12:28.619Z,2.4
2017-01-13T12:22:39.884Z,2.7
2017-01-13T12:32:50.988Z,2.9
2017-01-13T12:43:01.992Z,3.2
2017-01-13T12:53:12.716Z,3.2
2017-01-13T13:03:23.997Z,3.3
2017-01-13T13:13:34.218Z,3.4
2017-01-13T13:23:44.821Z,3.2
2017-01-13T13:33:55.420Z,2.8
2017-01-13T13:44:06.338Z,2.6
2017-01-13T13:54:17.521Z,2.7
2017-01-13T14:04:28.604Z,3.3
2017-01-13T14:14:39.519Z,2.8
2017-01-13T14:24:50.487Z,2.7
2017-01-13T14:35:01.508Z,2.5
2017-01-13T14:45:12.855Z,2.6
2017-01-13T14:55:24.223Z,2.7
2017-01-13T15:05:35.559Z,2.4
2017-01-13T15:15:46.989Z,2.3
2017-01-13T15:25:58.625Z,2.3
2017-01-13T15:36:10.335Z,2.2
2017-01-13T15:46:26.515Z,2
2017-01-13T15:56:33.892Z,2
2017-01-13T16:06:45.755Z,1.9
2017-01-13T16:16:57.583Z,2
2017-01-13T16:27:09.426Z,1.9
2017-01-13T16:37:21.295Z,1.9
2017-01-13T16:47:33.188Z,2
2017-01-13T16:57:45.030Z,2.1
2017-01-13T17:07:56.813Z,2.2
2017-01-13T17:18:08.658Z,2.2
2017-01-13T17:28:20.463Z,2.2
2017-01-13T17:38:32.243Z,2.4
2017-01-13T17:48:44.071Z,2.4
2017-01-13T17:58:55.912Z,2.4
2017-01-13T18:09:07.711Z,2.3
2017-01-13T18:19:19.570Z,1.8
2017-01-13T18:29:31.439Z,1.2
2017-01-13T18:39:43.345Z,0.9
2017-01-13T18:49:55.282Z,0.9
2017-01-13T19:00:07.244Z,1
2017-01-13T19:10:19.222Z,1
2017-01-13T19:20:31.216Z,0.9
2017-01-13T19:30:43.243Z,1
2017-01-13T19:40:55.368Z,0.8
2017-01-13T19:51:07.215Z,0.7
2017-01-13T20:01:19.219Z,0.6
2017-01-13T20:11:31.259Z,0.8
2017-01-13T20:21:43.233Z,0.9
2017-01-13T20:31:55.202Z,0.8
2017-01-13T20:42:07.180Z,1.1
2017-01-13T20:52:19.136Z,1.2
2017-01-13T21:02:31.123Z,1.2
2017-01-13T21:12:42.934Z,1.5
2017-01-13T21:22:54.843Z,2.1
2017-01-13T21:33:06.647Z,2.3
2017-01-13T21:43:18.444Z,2.5
2017-01-13T21:53:30.175Z,2.6
2017-01-13T22:03:41.927Z,2.9
2017-01-13T22:13:53.612Z,3.1
2017-01-13T22:24:05.305Z,3.3
2017-01-13T22:34:16.937Z,3.4
2017-01-13T22:44:28.559Z,3.6
2017-01-13T22:54:40.130Z,3.6
2017-01-13T23:04:51.709Z,3.7
2017-01-13T23:15:03.265Z,3.7
2017-01-13T23:25:14.850Z,3.7
2017-01-13T23:35:26.496Z,3.9
2017-01-13T23:45:38.127Z,3.9
2017-01-13T23:55:49.694Z,3.8
